Time;durP1;ratioP1;P1;durP2;ratioP2;P2;SDS_P1;SDS_P2;PMS_P1;PMS_P2;Temp;Humidity;BMP_temperature;BMP_pressure;BME280_temperature;BME280_humidity;BME280_pressure;Samples;Min_cycle;Max_cycle;Signal;HPM_P1;HPM_P2
2022/12/10 00:01:50;;;;;;;55.67;22.30;;;-2.40;99.90;;;;;;5008349;28;20038;-70
2022/12/10 00:04:16;;;;;;;53.05;21.38;;;-2.30;99.90;;;;;;5011686;28;20050;-69
2022/12/10 00:06:42;;;;;;;57.80;22.65;;;-2.30;99.90;;;;;;5004844;28;20042;-69
2022/12/10 00:09:11;;;;;;;66.40;24.42;;;-2.20;99.90;;;;;;5005069;28;20037;-69
2022/12/10 00:11:38;;;;;;;51.20;20.90;;;-2.00;99.90;;;;;;5011329;28;20502;-69
2022/12/10 00:14:03;;;;;;;59.17;23.15;;;-2.10;99.90;;;;;;5008695;28;20046;-69
2022/12/10 00:16:30;;;;;;;63.92;24.67;;;-2.10;99.90;;;;;;4997785;28;20493;-69
2022/12/10 00:18:56;;;;;;;57.80;25.42;;;-2.10;99.90;;;;;;5011652;28;20126;-69
2022/12/10 00:21:24;;;;;;;67.38;24.73;;;-2.00;99.90;;;;;;5011532;28;20673;-69
2022/12/10 00:23:50;;;;;;;58.63;22.92;;;-1.90;99.90;;;;;;5004300;28;20460;-69
2022/12/10 00:26:22;;;;;;;67.80;25.35;;;-1.90;99.90;;;;;;5004352;28;20049;-68
2022/12/10 00:28:49;;;;;;;57.03;23.77;;;-1.90;99.90;;;;;;5002829;28;20030;-70
2022/12/10 00:31:18;;;;;;;55.53;23.92;;;-1.80;99.90;;;;;;5011746;28;20049;-69
2022/12/10 00:33:44;;;;;;;60.17;22.85;;;-1.80;99.90;;;;;;5004862;28;20038;-69
2022/12/10 00:36:20;;;;;;;56.70;23.65;;;-1.80;99.90;;;;;;5009922;28;20044;-69
2022/12/10 00:38:47;;;;;;;61.55;22.80;;;-1.70;99.90;;;;;;4990808;28;20042;-69
2022/12/10 00:41:13;;;;;;;62.28;22.98;;;-1.70;99.90;;;;;;4996677;28;20046;-69
2022/12/10 00:43:40;;;;;;;57.00;23.15;;;-1.60;99.90;;;;;;5005012;28;20046;-69
2022/12/10 00:46:06;;;;;;;61.97;23.17;;;-1.60;99.90;;;;;;5010448;28;20135;-69
2022/12/10 00:48:32;;;;;;;55.75;23.23;;;-1.50;99.90;;;;;;5011626;28;20571;-69
2022/12/10 00:50:58;;;;;;;59.70;22.88;;;-1.40;99.90;;;;;;5005204;28;20053;-69
2022/12/10 00:53:25;;;;;;;52.25;22.15;;;-1.40;99.90;;;;;;5008680;28;20117;-69
2022/12/10 00:55:51;;;;;;;68.38;24.95;;;-1.30;99.90;;;;;;5011565;28;20478;-68
2022/12/10 00:58:17;;;;;;;61.15;24.38;;;-1.30;99.90;;;;;;4998263;28;20116;-68
2022/12/10 01:00:43;;;;;;;65.60;24.00;;;-1.20;99.90;;;;;;5010847;28;20048;-69
2022/12/10 01:03:08;;;;;;;67.53;26.55;;;-1.20;99.90;;;;;;5011284;28;20040;-69
2022/12/10 01:05:34;;;;;;;60.95;25.17;;;-1.10;99.90;;;;;;4999016;28;20035;-69
2022/12/10 01:07:59;;;;;;;65.60;25.67;;;-1.10;99.90;;;;;;5003018;28;20045;-69
2022/12/10 01:10:25;;;;;;;67.32;26.40;;;-1.10;99.90;;;;;;5009762;28;20053;-70
2022/12/10 01:12:51;;;;;;;67.43;27.13;;;-1.10;99.90;;;;;;5008691;28;20052;-69
2022/12/10 01:15:16;;;;;;;69.28;28.13;;;-1.00;99.90;;;;;;4999512;28;20489;-69
2022/12/10 01:17:42;;;;;;;75.88;28.60;;;-1.00;99.90;;;;;;5011122;28;20050;-69
2022/12/10 01:20:08;;;;;;;73.47;28.92;;;-1.00;99.90;;;;;;5013740;28;20062;-69
2022/12/10 01:22:33;;;;;;;73.95;28.20;;;-0.90;99.90;;;;;;5005324;28;20058;-69
2022/12/10 01:24:59;;;;;;;69.00;27.55;;;-0.90;99.90;;;;;;5005248;28;20104;-70
2022/12/10 01:27:25;;;;;;;65.93;26.80;;;-0.90;99.90;;;;;;5014291;28;20077;-69
2022/12/10 01:29:50;;;;;;;66.88;26.30;;;-0.90;99.90;;;;;;5009230;28;20403;-69
2022/12/10 01:32:16;;;;;;;68.90;27.00;;;-0.90;99.90;;;;;;5003193;28;20040;-69
2022/12/10 01:34:41;;;;;;;68.28;26.83;;;-0.90;99.90;;;;;;5013977;28;20072;-69
2022/12/10 01:37:07;;;;;;;73.18;25.67;;;-0.90;99.90;;;;;;5014781;28;20392;-69
2022/12/10 01:39:32;;;;;;;69.95;27.65;;;-0.90;99.90;;;;;;5008413;28;20093;-69
2022/12/10 01:41:59;;;;;;;67.07;27.30;;;-0.90;99.90;;;;;;5012551;28;20038;-69
2022/12/10 01:44:25;;;;;;;76.03;27.75;;;-0.90;99.90;;;;;;5014437;28;20042;-69
2022/12/10 01:46:53;;;;;;;76.43;27.08;;;-0.90;99.90;;;;;;5008269;28;20038;-69
2022/12/10 01:49:39;;;;;;;72.10;27.95;;;-0.90;99.90;;;;;;5010901;28;20113;-66
2022/12/10 01:52:07;;;;;;;70.93;28.02;;;-1.00;99.90;;;;;;5012720;28;20041;-68
2022/12/10 01:54:40;;;;;;;62.58;25.48;;;-1.00;99.90;;;;;;5014206;28;20053;-68
2022/12/10 01:57:10;;;;;;;67.00;25.98;;;-0.90;99.90;;;;;;5003623;28;20042;-68
2022/12/10 01:59:37;;;;;;;70.20;27.60;;;-0.90;99.90;;;;;;5011181;28;20404;-68
2022/12/10 02:02:22;;;;;;;61.53;25.70;;;-0.90;99.90;;;;;;5013873;28;20038;-68
2022/12/10 02:04:59;;;;;;;73.72;28.45;;;-1.00;99.90;;;;;;5004663;28;20042;-69
2022/12/10 02:07:39;;;;;;;73.72;28.30;;;-1.00;99.90;;;;;;5009936;28;20708;-69
2022/12/10 02:10:19;;;;;;;74.53;29.15;;;-1.10;99.90;;;;;;5013875;28;20120;-69
2022/12/10 02:12:58;;;;;;;70.63;26.63;;;-1.10;99.90;;;;;;5001490;28;20125;-69
2022/12/10 02:15:39;;;;;;;72.57;27.55;;;-1.10;99.90;;;;;;5013298;28;20554;-69
2022/12/10 02:18:11;;;;;;;69.97;26.85;;;-1.20;99.90;;;;;;5012721;28;20049;-69
2022/12/10 02:21:00;;;;;;;71.50;25.73;;;-1.30;99.90;;;;;;5005789;28;20030;-68
2022/12/10 02:23:37;;;;;;;72.68;26.35;;;-1.40;99.90;;;;;;5012277;28;20044;-68
2022/12/10 02:26:42;;;;;;;70.95;25.90;;;-1.40;99.90;;;;;;5013355;28;20081;-68
2022/12/10 02:29:16;;;;;;;66.50;25.83;;;-1.40;99.90;;;;;;4963317;28;20748;-68
2022/12/10 02:31:53;;;;;;;63.83;25.42;;;-1.50;99.90;;;;;;5005335;28;20038;-68
2022/12/10 02:34:21;;;;;;;68.90;26.83;;;-1.60;99.90;;;;;;5008618;28;20037;-68
2022/12/10 02:36:50;;;;;;;67.32;25.75;;;-1.60;99.90;;;;;;5007025;28;20508;-68
2022/12/10 02:39:35;;;;;;;71.47;27.13;;;-1.70;99.90;;;;;;5009206;28;20526;-68
2022/12/10 02:42:03;;;;;;;65.75;25.67;;;-1.70;99.90;;;;;;4989921;28;20507;-68
2022/12/10 02:44:31;;;;;;;67.78;26.20;;;-1.80;99.90;;;;;;5011997;28;20088;-68
2022/12/10 02:46:59;;;;;;;74.20;25.75;;;-1.80;99.90;;;;;;4999835;28;20057;-69
2022/12/10 02:49:26;;;;;;;73.18;27.08;;;-1.90;99.90;;;;;;5002469;28;20048;-68
2022/12/10 02:51:52;;;;;;;70.65;26.55;;;-1.90;99.90;;;;;;5011632;28;20554;-69
2022/12/10 02:54:42;;;;;;;73.13;26.65;;;-1.90;99.90;;;;;;5002013;28;20439;-68
2022/12/10 02:57:35;;;;;;;71.72;26.95;;;-1.90;99.90;;;;;;5006563;28;20447;-69
2022/12/10 03:00:16;;;;;;;67.72;24.48;;;-1.90;99.90;;;;;;4993602;28;20056;-69
2022/12/10 03:03:07;;;;;;;67.97;25.57;;;-1.90;99.90;;;;;;4993233;28;20065;-68
2022/12/10 03:05:42;;;;;;;;;;;-1.90;99.90;;;;;;5012471;28;20774;-67
2022/12/10 03:08:28;;;;;;;63.45;24.35;;;-2.00;99.90;;;;;;5009546;28;19917;-68
2022/12/10 03:11:17;;;;;;;69.63;25.92;;;-2.00;99.90;;;;;;5004638;28;20043;-68
2022/12/10 03:13:51;;;;;;;57.47;22.98;;;-2.00;99.90;;;;;;5005576;28;20471;-67
2022/12/10 03:16:18;;;;;;;60.83;25.25;;;-2.10;99.90;;;;;;5011403;28;20080;-67
2022/12/10 03:18:45;;;;;;;69.00;26.27;;;-2.10;99.90;;;;;;5008140;28;20034;-68
2022/12/10 03:21:13;;;;;;;74.82;26.05;;;-2.20;99.90;;;;;;4997917;28;20042;-68
2022/12/10 03:23:42;;;;;;;74.07;26.90;;;-2.20;99.90;;;;;;5010264;28;20489;-69
2022/12/10 03:26:09;;;;;;;66.05;23.77;;;-2.20;99.90;;;;;;5009319;28;20042;-68
2022/12/10 03:28:40;;;;;;;75.90;26.10;;;-2.20;99.90;;;;;;5002111;28;20129;-68
2022/12/10 03:31:07;;;;;;;;;;;-2.20;99.90;;;;;;4994697;28;20045;-67
2022/12/10 03:33:33;;;;;;;64.35;24.02;;;-2.10;99.90;;;;;;5012400;28;19933;-67
2022/12/10 03:35:59;;;;;;;72.93;26.40;;;-2.20;99.90;;;;;;4999175;28;20121;-69
2022/12/10 03:38:25;;;;;;;75.20;24.88;;;-2.20;99.90;;;;;;5008384;28;20181;-69
2022/12/10 03:40:51;;;;;;;69.85;25.75;;;-2.30;99.90;;;;;;5011998;28;20535;-69
2022/12/10 03:43:16;;;;;;;69.10;24.58;;;-2.30;99.90;;;;;;5000774;28;20038;-69
2022/12/10 03:45:42;;;;;;;70.43;26.30;;;-2.30;99.90;;;;;;5005371;28;20041;-68
2022/12/10 03:48:07;;;;;;;67.15;26.00;;;-2.30;99.90;;;;;;5010260;28;20045;-69
2022/12/10 03:50:33;;;;;;;68.53;25.60;;;-2.40;99.90;;;;;;5012394;28;20044;-69
2022/12/10 03:52:58;;;;;;;73.10;28.58;;;-2.40;99.90;;;;;;5002032;28;20416;-69
2022/12/10 03:55:25;;;;;;;66.13;25.63;;;-2.40;99.90;;;;;;5007733;28;20073;-69
2022/12/10 03:57:51;;;;;;;71.68;25.95;;;-2.40;99.90;;;;;;5011871;28;20489;-69
2022/12/10 04:00:16;;;;;;;65.93;26.88;;;-2.40;99.90;;;;;;5004899;28;20033;-68
2022/12/10 04:02:42;;;;;;;68.05;26.58;;;-2.40;99.90;;;;;;4996774;28;20115;-68
2022/12/10 04:05:08;;;;;;;68.45;24.92;;;-2.40;99.90;;;;;;5011761;28;20038;-69
2022/12/10 04:07:34;;;;;;;66.78;26.13;;;-2.50;99.90;;;;;;5007944;28;20412;-69
2022/12/10 04:10:00;;;;;;;73.82;26.27;;;-2.50;99.90;;;;;;5006598;28;20042;-69
2022/12/10 04:12:26;;;;;;;70.25;26.15;;;-2.50;99.90;;;;;;5008515;28;20048;-69
2022/12/10 04:17:35;;;;;;;72.18;25.77;;;-2.50;99.90;;;;;;5006154;28;20127;-69
2022/12/10 04:20:01;;;;;;;72.22;24.50;;;-2.60;99.90;;;;;;5009581;28;20492;-69
2022/12/10 04:27:56;;;;;;;72.35;26.13;;;-2.60;99.90;;;;;;4999887;28;20072;-69
2022/12/10 04:30:21;;;;;;;68.38;25.83;;;-2.60;99.90;;;;;;5010285;28;20404;-70
2022/12/10 04:32:47;;;;;;;68.90;25.48;;;-2.60;99.90;;;;;;5008660;28;20484;-68
2022/12/10 04:35:13;;;;;;;73.45;27.35;;;-2.60;99.90;;;;;;5002891;28;20054;-68
2022/12/10 04:37:38;;;;;;;70.78;27.30;;;-2.60;99.90;;;;;;5010563;28;20141;-69
2022/12/10 04:40:05;;;;;;;72.70;26.75;;;-2.60;99.90;;;;;;5010138;28;20042;-69
2022/12/10 04:42:31;;;;;;;74.78;26.55;;;-2.60;99.90;;;;;;5009702;28;20682;-70
2022/12/10 04:44:57;;;;;;;75.85;26.35;;;-2.50;99.90;;;;;;4993867;28;20034;-70
2022/12/10 04:47:23;;;;;;;76.60;26.08;;;-2.40;99.90;;;;;;4992794;28;20133;-69
2022/12/10 04:49:48;;;;;;;79.68;27.85;;;-2.40;99.90;;;;;;5004977;28;20053;-68
2022/12/10 04:52:16;;;;;;;73.40;25.85;;;-2.40;99.90;;;;;;4997609;28;20052;-68
2022/12/10 04:54:42;;;;;;;77.53;26.98;;;-2.40;99.90;;;;;;5013945;28;20046;-69
2022/12/10 04:57:09;;;;;;;74.32;26.80;;;-2.50;99.90;;;;;;5014847;28;20045;-68
2022/12/10 04:59:36;;;;;;;72.00;24.73;;;-2.50;99.90;;;;;;5013690;28;20042;-69
2022/12/10 05:02:02;;;;;;;85.40;27.35;;;-2.60;99.90;;;;;;5007508;28;20038;-69
2022/12/10 05:04:27;;;;;;;72.05;26.00;;;-2.60;99.90;;;;;;5012418;28;20444;-68
2022/12/10 05:06:53;;;;;;;66.68;25.75;;;-2.60;99.90;;;;;;5006209;28;20129;-68
2022/12/10 05:09:18;;;;;;;67.70;26.17;;;-2.60;99.90;;;;;;5010573;28;20049;-68
2022/12/10 05:11:44;;;;;;;66.45;25.70;;;-2.60;99.90;;;;;;5004747;28;20044;-69
2022/12/10 05:14:12;;;;;;;71.13;26.38;;;-2.70;99.90;;;;;;5013272;28;20521;-68
2022/12/10 05:16:37;;;;;;;70.75;25.77;;;-2.70;99.90;;;;;;5000874;28;20412;-68
2022/12/10 05:19:03;;;;;;;71.22;25.88;;;-2.70;99.90;;;;;;5014401;28;20044;-68
2022/12/10 05:23:27;;;;;;;69.10;24.85;;;-2.70;99.90;;;;;;5013651;28;20153;-68
2022/12/10 05:24:17;;;;;;;68.40;25.30;;;-2.80;99.90;;;;;;5006299;28;20180;-68
2022/12/10 05:26:43;;;;;;;70.20;25.80;;;-2.90;99.90;;;;;;5014123;28;20547;-69
2022/12/10 05:29:09;;;;;;;66.40;25.98;;;-2.90;99.90;;;;;;5013305;28;20041;-69
2022/12/10 05:31:35;;;;;;;68.95;25.48;;;-3.00;99.90;;;;;;5009648;28;20038;-69
2022/12/10 05:34:01;;;;;;;73.32;26.67;;;-3.00;99.90;;;;;;5010679;28;20272;-68
2022/12/10 05:36:29;;;;;;;63.88;26.00;;;-3.00;99.90;;;;;;5013954;28;20471;-69
2022/12/10 05:38:56;;;;;;;62.90;24.65;;;-3.00;99.90;;;;;;5014759;28;20523;-69
2022/12/10 05:41:30;;;;;;;67.60;25.73;;;-3.10;99.90;;;;;;5001542;28;20588;-69
2022/12/10 05:43:57;;;;;;;66.18;25.38;;;-3.10;99.90;;;;;;5007944;28;20034;-69
2022/12/10 05:46:25;;;;;;;71.88;27.65;;;-3.10;99.90;;;;;;5014495;28;20037;-69
2022/12/10 05:48:51;;;;;;;78.13;27.05;;;-3.10;99.90;;;;;;4998055;28;20050;-69
2022/12/10 05:51:22;;;;;;;69.75;25.40;;;-3.10;99.90;;;;;;5003124;28;20122;-69
2022/12/10 05:53:48;;;;;;;65.35;24.08;;;-3.10;99.90;;;;;;5006732;28;20041;-69
2022/12/10 05:56:18;;;;;;;74.45;25.50;;;-3.00;99.90;;;;;;5006140;28;20049;-68
2022/12/10 05:58:45;;;;;;;81.28;26.98;;;-3.10;99.90;;;;;;5007459;28;20052;-68
2022/12/10 06:01:17;;;;;;;77.43;27.00;;;-3.00;99.90;;;;;;5013528;28;20034;-68
2022/12/10 06:03:43;;;;;;;68.45;26.45;;;-3.00;99.90;;;;;;5006870;28;20401;-68
2022/12/10 06:06:09;;;;;;;69.13;25.42;;;-3.00;99.90;;;;;;5008326;28;20057;-68
2022/12/10 06:08:35;;;;;;;70.53;26.40;;;-3.10;99.90;;;;;;5013538;28;20396;-68
2022/12/10 06:11:07;;;;;;;74.22;26.85;;;-3.10;99.90;;;;;;5012696;28;20081;-68
2022/12/10 06:13:33;;;;;;;69.75;25.85;;;-3.10;99.90;;;;;;5000141;28;20042;-68
2022/12/10 06:15:59;;;;;;;78.65;26.50;;;-3.10;99.90;;;;;;5012860;28;20396;-68
2022/12/10 06:18:24;;;;;;;72.40;26.55;;;-3.10;99.90;;;;;;5013497;28;20395;-68
2022/12/10 06:20:50;;;;;;;70.65;25.42;;;-3.00;99.90;;;;;;5013643;28;20040;-68
2022/12/10 06:23:16;;;;;;;75.80;26.30;;;-3.10;99.90;;;;;;5005989;28;20039;-68
2022/12/10 06:25:41;;;;;;;76.25;27.48;;;-3.10;99.90;;;;;;5003324;28;20113;-68
2022/12/10 06:28:08;;;;;;;73.63;27.00;;;-3.10;99.90;;;;;;5012605;28;20041;-68
2022/12/10 06:30:34;;;;;;;76.00;27.38;;;-3.10;99.90;;;;;;5008615;28;20042;-68
2022/12/10 06:33:00;;;;;;;72.72;26.08;;;-3.10;99.90;;;;;;5012801;28;20543;-68
2022/12/10 06:35:25;;;;;;;70.05;26.10;;;-3.10;99.90;;;;;;5013349;28;20038;-68
2022/12/10 06:37:51;;;;;;;75.78;26.67;;;-3.10;99.90;;;;;;4991803;28;20400;-70
2022/12/10 06:40:18;;;;;;;71.55;26.15;;;-3.10;99.90;;;;;;5009235;28;20050;-68
2022/12/10 06:42:44;;;;;;;76.53;26.95;;;-3.10;99.90;;;;;;5007632;28;20033;-68
2022/12/10 06:45:10;;;;;;;70.18;25.40;;;-3.10;99.90;;;;;;5003808;28;20532;-68
2022/12/10 06:47:36;;;;;;;69.50;26.10;;;-3.00;99.90;;;;;;5001199;28;20101;-69
2022/12/10 06:50:02;;;;;;;79.93;27.95;;;-3.00;99.90;;;;;;5010266;28;20691;-68
2022/12/10 06:52:27;;;;;;;68.57;25.23;;;-3.00;99.90;;;;;;5012079;28;20117;-68
2022/12/10 06:54:54;;;;;;;73.35;26.73;;;-3.00;99.90;;;;;;5006951;28;20149;-68
2022/12/10 06:57:21;;;;;;;72.75;27.13;;;-3.00;99.90;;;;;;5006666;28;20057;-68
2022/12/10 06:59:46;;;;;;;75.63;26.33;;;-3.00;99.90;;;;;;5006496;28;20038;-68
2022/12/10 07:02:12;;;;;;;70.90;26.60;;;-3.00;99.90;;;;;;5011537;28;20164;-68
2022/12/10 07:04:38;;;;;;;72.28;26.83;;;-3.00;99.90;;;;;;5008172;28;20058;-68
2022/12/10 07:07:06;;;;;;;78.10;27.77;;;-3.00;99.90;;;;;;5004391;28;20045;-68
2022/12/10 07:09:32;;;;;;;76.03;27.88;;;-3.00;99.90;;;;;;5010327;28;20049;-68
2022/12/10 07:11:58;;;;;;;72.07;27.10;;;-3.10;99.90;;;;;;5011668;28;20037;-68
2022/12/10 07:14:23;;;;;;;73.28;27.50;;;-3.10;99.90;;;;;;5003575;28;20048;-67
2022/12/10 07:16:49;;;;;;;76.45;27.80;;;-3.00;99.90;;;;;;4999816;28;20038;-68
2022/12/10 07:19:15;;;;;;;73.78;27.48;;;-3.10;99.90;;;;;;5007165;28;20053;-67
2022/12/10 07:21:42;;;;;;;71.35;26.75;;;-3.00;99.90;;;;;;4993548;28;20121;-68
2022/12/10 07:24:14;;;;;;;73.45;26.73;;;-3.00;99.90;;;;;;5007448;28;20034;-68
2022/12/10 07:26:43;;;;;;;70.43;27.02;;;-3.00;99.90;;;;;;5012206;28;20056;-68
2022/12/10 07:29:14;;;;;;;81.68;27.60;;;-2.90;99.90;;;;;;5010627;28;20048;-68
2022/12/10 07:31:40;;;;;;;;;;;-3.00;99.90;;;;;;5009612;28;20508;-68
2022/12/10 07:34:05;;;;;;;68.18;24.38;;;-3.00;99.90;;;;;;5012382;28;19917;-68
2022/12/10 07:36:31;;;;;;;74.18;26.00;;;-3.00;99.90;;;;;;5007423;28;20707;-68
2022/12/10 07:38:57;;;;;;;75.30;26.92;;;-3.00;99.90;;;;;;4999284;28;20045;-68
2022/12/10 07:41:23;;;;;;;68.70;26.02;;;-3.10;99.90;;;;;;4997609;28;20053;-67
2022/12/10 07:43:49;;;;;;;67.90;25.60;;;-3.10;99.90;;;;;;5011937;28;20125;-69
2022/12/10 07:46:19;;;;;;;73.00;26.15;;;-3.10;99.90;;;;;;5012338;28;20041;-69
2022/12/10 07:48:46;;;;;;;70.75;25.40;;;-3.10;99.90;;;;;;5001750;28;20105;-68
2022/12/10 07:51:12;;;;;;;75.28;27.58;;;-3.10;99.90;;;;;;5008738;28;20037;-67
2022/12/10 07:53:38;;;;;;;67.75;25.60;;;-3.10;99.90;;;;;;5006138;28;20034;-67
2022/12/10 07:56:04;;;;;;;73.50;28.35;;;-3.10;99.90;;;;;;5003900;28;20030;-67
2022/12/10 07:58:30;;;;;;;72.93;26.77;;;-3.00;99.90;;;;;;5011595;28;20069;-68
2022/12/10 08:00:55;;;;;;;72.70;26.73;;;-3.00;99.90;;;;;;5010963;28;20457;-68
2022/12/10 08:03:21;;;;;;;74.28;26.80;;;-3.00;99.90;;;;;;5006588;28;20124;-67
2022/12/10 08:05:46;;;;;;;69.28;25.73;;;-2.90;99.90;;;;;;5003519;28;20488;-67
2022/12/10 08:08:12;;;;;;;76.85;26.88;;;-2.80;99.90;;;;;;5010013;28;20088;-66
2022/12/10 08:10:39;;;;;;;77.60;28.23;;;-2.80;99.90;;;;;;5001225;28;20045;-67
2022/12/10 08:13:06;;;;;;;75.32;27.40;;;-2.80;99.90;;;;;;5000011;28;20053;-67
2022/12/10 08:15:32;;;;;;;78.03;25.83;;;-2.80;99.90;;;;;;5009794;28;20053;-67
2022/12/10 08:17:58;;;;;;;75.70;27.73;;;-2.70;99.90;;;;;;5002497;28;20038;-67
2022/12/10 08:20:24;;;;;;;83.43;28.05;;;-2.60;99.90;;;;;;5010231;28;20045;-67
2022/12/10 08:22:50;;;;;;;74.40;28.77;;;-2.60;99.90;;;;;;5009930;28;20037;-67
2022/12/10 08:25:16;;;;;;;80.00;28.83;;;-2.50;99.90;;;;;;5011893;28;20788;-67
2022/12/10 08:27:42;;;;;;;81.30;28.20;;;-2.40;99.90;;;;;;4993020;28;20042;-67
2022/12/10 08:30:08;;;;;;;79.47;30.00;;;-2.40;99.90;;;;;;4994211;28;20042;-69
2022/12/10 08:32:33;;;;;;;80.38;28.00;;;-2.40;99.90;;;;;;5000947;28;20045;-68
2022/12/10 08:34:59;;;;;;;81.15;28.08;;;-2.30;99.90;;;;;;5006931;28;20034;-67
2022/12/10 08:37:25;;;;;;;78.30;27.77;;;-2.20;99.90;;;;;;4999862;28;20042;-67
2022/12/10 08:39:50;;;;;;;75.35;28.95;;;-2.20;99.90;;;;;;5006639;28;20088;-68
2022/12/10 08:42:16;;;;;;;76.82;28.08;;;-2.20;99.90;;;;;;5008460;28;20037;-67
2022/12/10 08:44:41;;;;;;;79.80;27.35;;;-2.10;99.90;;;;;;5000725;28;20042;-68
2022/12/10 08:47:07;;;;;;;77.63;27.05;;;-2.10;99.90;;;;;;5004953;28;20034;-68
2022/12/10 08:49:33;;;;;;;87.03;30.58;;;-2.10;99.90;;;;;;5006626;28;20058;-69
2022/12/10 08:51:58;;;;;;;74.07;28.70;;;-2.00;99.90;;;;;;5007594;28;20034;-68
2022/12/10 08:54:24;;;;;;;79.15;29.10;;;-2.00;99.90;;;;;;4994024;28;20074;-66
2022/12/10 08:56:49;;;;;;;76.75;28.73;;;-1.90;99.90;;;;;;5006746;28;20034;-68
2022/12/10 08:59:15;;;;;;;85.65;28.88;;;-1.90;99.90;;;;;;5009880;28;20626;-68
2022/12/10 09:01:41;;;;;;;82.00;29.73;;;-1.80;99.90;;;;;;5001305;28;20034;-68
2022/12/10 09:04:06;;;;;;;76.70;27.30;;;-1.70;99.90;;;;;;5003476;28;20408;-68
2022/12/10 09:06:32;;;;;;;82.43;28.85;;;-1.70;99.90;;;;;;5009935;28;20041;-69
2022/12/10 09:08:57;;;;;;;88.63;29.73;;;-1.60;99.90;;;;;;5010178;28;20044;-69
2022/12/10 09:11:27;;;;;;;86.00;29.98;;;-1.50;99.90;;;;;;4998410;28;20053;-70
2022/12/10 09:13:53;;;;;;;89.22;32.78;;;-1.50;99.90;;;;;;5005717;28;20042;-69
2022/12/10 09:16:19;;;;;;;98.60;34.88;;;-1.40;99.90;;;;;;5002079;28;20408;-71
2022/12/10 09:18:45;;;;;;;96.03;32.92;;;-1.20;99.90;;;;;;5001087;28;20038;-68
2022/12/10 09:21:13;;;;;;;87.72;30.00;;;-1.20;99.90;;;;;;5001593;28;20030;-68
2022/12/10 09:23:40;;;;;;;88.65;30.00;;;-1.10;99.90;;;;;;5008618;28;20034;-67
2022/12/10 09:26:11;;;;;;;89.65;31.60;;;-1.10;99.90;;;;;;5010726;28;20038;-67
2022/12/10 09:28:37;;;;;;;92.97;31.83;;;-1.00;99.90;;;;;;5009512;28;20041;-67
2022/12/10 09:31:04;;;;;;;87.10;30.63;;;-1.00;99.90;;;;;;5003456;28;20488;-67
2022/12/10 09:33:30;;;;;;;93.40;31.80;;;-0.90;99.90;;;;;;5003697;28;20044;-67
2022/12/10 09:35:56;;;;;;;91.47;32.08;;;-0.90;99.90;;;;;;5005977;28;20073;-68
2022/12/10 09:38:22;;;;;;;94.18;32.45;;;-0.80;99.90;;;;;;5009408;28;20073;-68
2022/12/10 09:41:22;;;;;;;90.45;30.83;;;-0.80;99.90;;;;;;5012972;28;20038;-68
2022/12/10 09:43:55;;;;;;;85.88;30.67;;;-0.70;99.90;;;;;;5001838;28;20046;-69
2022/12/10 09:46:30;;;;;;;99.70;33.92;;;-0.70;99.90;;;;;;4994191;28;20053;-69
2022/12/10 09:49:17;;;;;;;88.70;33.13;;;-0.70;99.90;;;;;;5001670;28;20044;-67
2022/12/10 09:51:42;;;;;;;85.22;29.13;;;-0.60;99.90;;;;;;4992330;28;20038;-67
2022/12/10 09:54:32;;;;;;;105.15;33.38;;;-0.50;99.90;;;;;;5012183;28;20042;-67
2022/12/10 09:57:00;;;;;;;101.40;35.17;;;-0.40;99.90;;;;;;5007654;28;20551;-67
2022/12/10 09:59:34;;;;;;;96.13;33.55;;;-0.40;99.90;;;;;;5007487;28;20031;-68
2022/12/10 10:02:20;;;;;;;84.47;30.52;;;-0.30;99.90;;;;;;5003625;28;20407;-67
2022/12/10 10:04:45;;;;;;;97.30;34.45;;;-0.30;99.90;;;;;;5001998;28;20057;-68
2022/12/10 10:07:20;;;;;;;97.70;35.00;;;-0.30;99.90;;;;;;4998506;28;20046;-68
2022/12/10 10:09:46;;;;;;;98.05;35.30;;;-0.30;99.90;;;;;;5000833;28;20068;-65
2022/12/10 10:12:15;;;;;;;106.60;39.75;;;-0.30;99.90;;;;;;5009256;28;20679;-68
2022/12/10 10:14:43;;;;;;;92.20;34.67;;;-0.30;99.90;;;;;;5004788;28;20120;-68
2022/12/10 10:17:49;;;;;;;106.32;38.95;;;-0.40;99.90;;;;;;4992914;28;20050;-68
2022/12/10 10:20:15;;;;;;;99.82;38.13;;;-0.40;99.90;;;;;;4947701;28;20047;-67
2022/12/10 10:22:41;;;;;;;100.85;35.97;;;-0.40;99.90;;;;;;4950115;28;20113;-67
2022/12/10 10:25:15;;;;;;;93.50;33.45;;;-0.40;99.90;;;;;;4982138;28;20053;-67
2022/12/10 10:27:40;;;;;;;85.85;31.65;;;-0.30;99.90;;;;;;5008686;28;20073;-68
2022/12/10 10:30:13;;;;;;;94.85;33.42;;;-0.40;99.90;;;;;;5010206;28;20050;-67
2022/12/10 10:32:38;;;;;;;80.05;29.40;;;-0.30;99.90;;;;;;5009539;28;20049;-67
2022/12/10 10:35:05;;;;;;;85.15;29.75;;;-0.30;99.90;;;;;;5000763;28;20046;-68
2022/12/10 10:37:40;;;;;;;88.70;31.40;;;-0.40;99.90;;;;;;5006550;28;20049;-68
2022/12/10 10:40:21;;;;;;;82.70;28.48;;;-0.40;99.90;;;;;;5002258;28;20048;-69
2022/12/10 10:42:47;;;;;;;91.45;31.50;;;-0.40;99.90;;;;;;4995270;28;20540;-69
2022/12/10 10:45:48;;;;;;;81.07;28.15;;;-0.40;99.90;;;;;;5007191;28;20045;-68
2022/12/10 10:48:19;;;;;;;83.90;28.63;;;-0.40;99.90;;;;;;4990252;28;20043;-67
2022/12/10 10:50:48;;;;;;;80.88;28.42;;;-0.50;99.90;;;;;;5008693;28;20049;-68
2022/12/10 10:53:32;;;;;;;79.88;27.67;;;-0.50;99.90;;;;;;5013330;28;20050;-67
2022/12/10 10:56:09;;;;;;;83.50;29.10;;;-0.50;99.90;;;;;;5009336;28;20092;-67
2022/12/10 10:58:44;;;;;;;83.15;29.58;;;-0.50;99.90;;;;;;5003222;28;20473;-67
2022/12/10 11:01:09;;;;;;;83.45;28.88;;;-0.60;99.90;;;;;;5011484;28;20041;-66
2022/12/10 11:03:44;;;;;;;85.72;28.15;;;-0.60;99.90;;;;;;5000207;28;20677;-67
2022/12/10 11:06:11;;;;;;;79.32;28.27;;;-0.60;99.90;;;;;;5011358;28;20038;-69
2022/12/10 11:08:41;;;;;;;86.00;28.42;;;-0.60;99.90;;;;;;5023284;28;20037;-69
2022/12/10 11:11:13;;;;;;;84.32;28.20;;;-0.50;99.90;;;;;;5021913;28;20046;-69
2022/12/10 11:13:39;;;;;;;87.70;28.35;;;-0.50;99.90;;;;;;5002711;28;20169;-68
2022/12/10 11:16:27;;;;;;;80.75;28.80;;;-0.50;99.90;;;;;;5008315;28;20164;-68
2022/12/10 11:19:02;;;;;;;89.07;29.13;;;-0.40;99.90;;;;;;5005854;28;20038;-68
2022/12/10 11:21:33;;;;;;;96.78;31.30;;;-0.40;99.90;;;;;;5011450;28;20545;-67
2022/12/10 11:24:00;;;;;;;111.93;33.28;;;-0.40;99.90;;;;;;4998260;28;20039;-66
2022/12/10 11:26:34;;;;;;;102.00;32.40;;;-0.40;99.90;;;;;;4997313;28;20100;-67
2022/12/10 11:29:37;;;;;;;91.88;29.85;;;-0.30;99.90;;;;;;5010688;28;20128;-67
2022/12/10 11:32:33;;;;;;;106.32;33.28;;;-0.30;99.90;;;;;;4996397;28;20497;-67
2022/12/10 11:35:21;;;;;;;107.82;35.22;;;-0.30;99.90;;;;;;5004743;28;20062;-66
2022/12/10 11:38:01;;;;;;;112.60;34.88;;;-0.40;99.90;;;;;;4989798;28;20045;-66
2022/12/10 11:40:49;;;;;;;108.30;33.03;;;-0.40;99.90;;;;;;4997856;28;20073;-66
2022/12/10 11:43:17;;;;;;;114.65;37.78;;;-0.30;99.90;;;;;;5012006;28;20711;-67
2022/12/10 11:45:55;;;;;;;103.82;31.55;;;-0.40;99.90;;;;;;5012317;28;20493;-67
2022/12/10 11:48:48;;;;;;;103.35;32.35;;;-0.30;99.90;;;;;;4998254;28;20048;-68
2022/12/10 11:51:37;;;;;;;102.60;31.88;;;-0.30;99.90;;;;;;5007634;28;20045;-67
2022/12/10 11:54:21;;;;;;;103.32;32.40;;;-0.30;99.90;;;;;;4991727;28;20046;-67
2022/12/10 11:56:54;;;;;;;106.35;34.35;;;-0.30;99.90;;;;;;4994216;28;20050;-66
2022/12/10 11:59:43;;;;;;;102.85;30.73;;;-0.20;99.90;;;;;;5010008;28;20121;-67
2022/12/10 12:02:48;;;;;;;94.80;32.00;;;-0.20;99.90;;;;;;5011899;28;20369;-66
2022/12/10 12:05:35;;;;;;;100.00;31.77;;;-0.20;99.90;;;;;;5002146;28;20049;-66
2022/12/10 12:08:10;;;;;;;98.22;30.30;;;-0.10;99.90;;;;;;5004373;28;20046;-67
2022/12/10 12:10:57;;;;;;;99.13;32.60;;;-0.10;99.90;;;;;;5011736;28;20037;-67
2022/12/10 12:13:32;;;;;;;95.78;32.78;;;0.00;99.90;;;;;;4998066;28;20042;-66
2022/12/10 12:16:05;;;;;;;92.63;32.30;;;0.00;99.90;;;;;;5005376;28;20042;-66
2022/12/10 12:19:04;;;;;;;100.00;32.58;;;0.00;99.90;;;;;;5010133;28;20141;-67
2022/12/10 12:21:30;;;;;;;95.90;31.08;;;0.00;99.90;;;;;;4993524;28;20054;-67
2022/12/10 12:24:05;;;;;;;89.82;30.30;;;0.00;99.90;;;;;;4995702;28;20038;-68
2022/12/10 12:26:46;;;;;;;94.10;32.45;;;0.10;99.90;;;;;;5009043;28;20041;-67
2022/12/10 12:29:37;;;;;;;79.30;29.55;;;0.10;99.90;;;;;;5010004;28;20042;-67
2022/12/10 12:32:19;;;;;;;82.05;28.15;;;0.10;99.90;;;;;;5006380;28;20053;-67
2022/12/10 12:34:51;;;;;;;80.95;27.08;;;0.10;99.90;;;;;;5007418;28;20467;-68
2022/12/10 12:37:18;;;;;;;;;;;0.10;99.90;;;;;;5000505;28;20109;-67
2022/12/10 12:40:02;;;;;;;85.05;28.63;;;0.10;99.90;;;;;;5010810;28;19928;-67
2022/12/10 12:42:42;;;;;;;80.68;29.85;;;0.10;99.90;;;;;;5010941;28;20440;-67
2022/12/10 12:45:42;;;;;;;91.22;29.63;;;0.20;99.90;;;;;;5002517;28;20555;-67
2022/12/10 12:48:43;;;;;;;88.38;30.67;;;0.10;99.90;;;;;;4990844;28;20058;-67
2022/12/10 12:51:14;;;;;;;88.50;31.48;;;0.20;99.90;;;;;;5004811;28;20489;-68
2022/12/10 12:53:40;;;;;;;83.30;29.33;;;0.20;99.90;;;;;;5004732;28;20508;-68